createdAt,value
2019-05-15T00:00:38.454Z,46.76
2019-05-15T00:01:40.711Z,46.45
2019-05-15T00:02:38.836Z,46.34
2019-05-15T00:03:38.847Z,46.45
2019-05-15T00:04:38.222Z,46.04
2019-05-15T00:05:38.677Z,46.14
2019-05-15T00:06:35.966Z,45.94
2019-05-15T00:07:35.970Z,46.14
2019-05-15T00:08:38.427Z,46.24
2019-05-15T00:09:41.208Z,45.73
2019-05-15T00:10:38.911Z,46.24
2019-05-15T00:11:35.900Z,46.14
2019-05-15T00:12:35.921Z,45.73
2019-05-15T00:13:35.932Z,45.42
2019-05-15T00:14:35.876Z,45.62
2019-05-15T00:15:35.884Z,45.62
2019-05-15T00:16:38.422Z,45.52
2019-05-15T00:17:35.868Z,45.52
2019-05-15T00:18:35.988Z,45.52
2019-05-15T00:19:35.855Z,45.11
2019-05-15T00:20:35.798Z,45.09
2019-05-15T00:21:38.075Z,45.42
2019-05-15T00:22:35.798Z,45.52
2019-05-15T00:23:35.834Z,45.21
2019-05-15T00:24:38.012Z,45.52
2019-05-15T00:25:35.806Z,45.83
2019-05-15T00:26:35.749Z,45.62
2019-05-15T00:27:38.330Z,45.94
2019-05-15T00:28:35.764Z,45.85
2019-05-15T00:29:35.724Z,45.54
2019-05-15T00:30:35.710Z,44.70
2019-05-15T00:31:35.712Z,45.11
2019-05-15T00:32:35.728Z,45.65
2019-05-15T00:33:35.736Z,45.44
2019-05-15T00:34:37.788Z,45.54
2019-05-15T00:35:35.698Z,45.13
2019-05-15T00:36:38.103Z,45.34
2019-05-15T00:37:35.637Z,45.13
2019-05-15T00:38:35.625Z,45.34
2019-05-15T00:39:35.603Z,45.54
2019-05-15T00:40:35.605Z,45.85
2019-05-15T00:41:48.322Z,45.67
2019-05-15T00:42:38.386Z,45.67
2019-05-15T00:43:35.545Z,46.19
2019-05-15T00:44:35.571Z,46.19
2019-05-15T00:45:35.555Z,46.41
2019-05-15T00:46:35.523Z,46.20
2019-05-15T00:47:35.531Z,45.38
2019-05-15T00:48:35.549Z,45.59
2019-05-15T00:49:35.470Z,44.86
2019-05-15T00:50:35.503Z,45.17
2019-05-15T00:51:35.473Z,45.07
2019-05-15T00:52:35.528Z,45.69
2019-05-15T00:53:35.491Z,45.07
2019-05-15T00:54:35.450Z,45.79
2019-05-15T00:55:37.874Z,45.79
2019-05-15T00:56:35.411Z,45.79
2019-05-15T00:57:35.399Z,45.79
2019-05-15T00:58:35.400Z,46.10
2019-05-15T00:59:35.389Z,46.64
2019-05-15T01:00:38.028Z,46.64
2019-05-15T01:01:35.372Z,46.74
2019-05-15T01:02:35.341Z,46.53
2019-05-15T01:03:35.334Z,46.43
2019-05-15T01:04:35.393Z,46.53
2019-05-15T01:05:35.354Z,47.56
2019-05-15T01:06:35.306Z,48.19
2019-05-15T01:07:35.357Z,50.48
2019-05-15T01:08:35.355Z,50.99
2019-05-15T01:09:35.273Z,49.05
2019-05-15T01:10:35.285Z,49.88
2019-05-15T01:11:35.340Z,51.43
2019-05-15T01:12:35.220Z,51.87
2019-05-15T01:13:35.242Z,51.25
2019-05-15T01:14:35.339Z,51.25
2019-05-15T01:15:35.232Z,50.76
2019-05-15T01:16:35.222Z,50.76
2019-05-15T01:17:35.258Z,50.34
2019-05-15T01:18:35.200Z,49.41
2019-05-15T01:19:35.172Z,49.31
2019-05-15T01:20:35.140Z,47.97
2019-05-15T01:21:35.163Z,46.19
2019-05-15T01:22:35.180Z,46.58
2019-05-15T01:23:35.143Z,46.27
2019-05-15T01:24:35.140Z,46.17
2019-05-15T01:25:35.079Z,45.63
2019-05-15T01:26:35.159Z,46.25
2019-05-15T01:27:35.088Z,45.94
2019-05-15T01:28:35.106Z,46.04
2019-05-15T01:29:43.711Z,45.63
2019-05-15T01:30:36.077Z,45.42
2019-05-15T01:31:35.048Z,45.63
2019-05-15T01:32:35.076Z,45.83
2019-05-15T01:33:35.008Z,44.80
2019-05-15T01:34:35.049Z,44.06
2019-05-15T01:35:35.033Z,43.85
2019-05-15T01:36:35.032Z,44.06
2019-05-15T01:37:34.985Z,43.96
2019-05-15T01:38:34.946Z,43.54
2019-05-15T01:39:34.954Z,43.54
2019-05-15T01:40:34.968Z,42.93
2019-05-15T01:41:34.970Z,43.65
2019-05-15T01:42:34.962Z,43.23
2019-05-15T01:43:34.914Z,43.65
2019-05-15T01:44:34.922Z,43.65
2019-05-15T01:45:34.909Z,43.46
2019-05-15T01:46:34.930Z,43.46
2019-05-15T01:47:34.862Z,43.98
2019-05-15T01:48:34.868Z,44.29
2019-05-15T01:49:34.852Z,44.39
2019-05-15T01:50:34.850Z,43.87
2019-05-15T01:51:34.830Z,44.08
2019-05-15T01:52:34.844Z,44.59
2019-05-15T01:53:34.792Z,44.93
2019-05-15T01:54:34.800Z,44.72
2019-05-15T01:55:34.820Z,47.92
2019-05-15T01:56:34.788Z,52.80
2019-05-15T01:57:34.754Z,55.51
2019-05-15T01:58:34.768Z,57.60
2019-05-15T01:59:34.711Z,58.44
2019-05-15T02:00:34.724Z,58.98
2019-05-15T02:01:34.702Z,59.60
2019-05-15T02:02:34.748Z,59.39
2019-05-15T02:03:34.706Z,60.04
2019-05-15T02:04:34.656Z,60.89
2019-05-15T02:05:34.664Z,61.72
2019-05-15T02:06:34.658Z,62.68
2019-05-15T02:07:34.668Z,63.10
2019-05-15T02:08:34.615Z,63.85
2019-05-15T02:09:34.636Z,65.00
2019-05-15T02:10:34.732Z,65.86
2019-05-15T02:11:34.642Z,66.68
2019-05-15T02:12:34.572Z,66.68
2019-05-15T02:13:34.673Z,66.99
2019-05-15T02:14:34.557Z,67.72
2019-05-15T02:15:34.542Z,67.65
2019-05-15T02:16:34.709Z,67.65
2019-05-15T02:17:34.579Z,67.65
2019-05-15T02:18:34.541Z,67.24
2019-05-15T02:19:34.644Z,67.76
2019-05-15T02:20:34.516Z,67.99
2019-05-15T02:21:34.509Z,68.72
2019-05-15T02:22:34.503Z,69.24
2019-05-15T02:23:34.526Z,69.13
2019-05-15T02:24:34.452Z,69.06
2019-05-15T02:25:34.423Z,69.68
2019-05-15T02:26:34.450Z,69.86
2019-05-15T02:27:34.416Z,70.00
2019-05-15T02:28:34.426Z,70.00
2019-05-15T02:29:34.435Z,70.41
2019-05-15T02:30:34.594Z,70.51
2019-05-15T02:31:34.415Z,71.76
2019-05-15T02:32:34.373Z,71.24
2019-05-15T02:33:34.382Z,71.14
2019-05-15T02:34:34.383Z,71.38
2019-05-15T02:35:34.342Z,71.69
2019-05-15T02:36:34.315Z,72.21
2019-05-15T02:37:34.460Z,72.21
2019-05-15T02:38:34.322Z,72.31
2019-05-15T02:39:34.324Z,72.63
2019-05-15T02:40:34.308Z,72.86
2019-05-15T02:41:34.295Z,73.28
2019-05-15T02:42:34.260Z,73.49
2019-05-15T02:43:34.284Z,73.70
2019-05-15T02:44:34.332Z,73.70
2019-05-15T02:45:37.834Z,73.91
2019-05-15T02:46:35.253Z,74.25
2019-05-15T02:47:34.211Z,74.46
2019-05-15T02:48:34.198Z,74.35
2019-05-15T02:49:34.230Z,74.67
2019-05-15T02:50:34.184Z,73.32
2019-05-15T02:51:34.158Z,72.90
2019-05-15T02:52:34.176Z,73.70
2019-05-15T02:53:34.146Z,72.90
2019-05-15T02:54:34.126Z,72.17
2019-05-15T02:55:36.133Z,72.07
2019-05-15T02:56:34.125Z,72.38
2019-05-15T02:57:34.114Z,72.07
2019-05-15T02:58:34.098Z,68.32
2019-05-15T02:59:34.113Z,65.59
2019-05-15T03:00:43.961Z,61.71
2019-05-15T03:01:35.077Z,61.27
2019-05-15T03:02:34.080Z,59.79
2019-05-15T03:03:34.053Z,58.31
2019-05-15T03:04:34.026Z,58.62
2019-05-15T03:05:34.050Z,57.14
2019-05-15T03:06:34.003Z,56.93
2019-05-15T03:07:33.995Z,56.62
2019-05-15T03:08:34.032Z,56.49
2019-05-15T03:09:34.010Z,56.08
2019-05-15T03:10:34.038Z,56.18
2019-05-15T03:11:33.980Z,55.98
2019-05-15T03:12:33.954Z,56.60
2019-05-15T03:13:33.947Z,55.46
2019-05-15T03:14:33.979Z,55.85
2019-05-15T03:15:33.979Z,54.71
2019-05-15T03:16:33.897Z,55.62
2019-05-15T03:17:33.883Z,56.54
2019-05-15T03:18:33.868Z,60.20
2019-05-15T03:19:33.893Z,58.64
2019-05-15T03:20:33.899Z,60.20
2019-05-15T03:21:33.876Z,61.47
2019-05-15T03:22:33.847Z,58.57
2019-05-15T03:23:33.844Z,60.95
2019-05-15T03:24:33.821Z,64.37
2019-05-15T03:25:33.846Z,66.14
2019-05-15T03:26:33.777Z,65.65
2019-05-15T03:27:34.944Z,67.20
2019-05-15T03:28:33.770Z,67.10
2019-05-15T03:29:33.771Z,69.79
2019-05-15T03:31:04.718Z,69.62
2019-05-15T03:31:48.895Z,69.83
2019-05-15T03:32:43.666Z,69.52
2019-05-15T03:33:37.063Z,69.76
2019-05-15T03:34:38.168Z,70.90
2019-05-15T03:35:34.722Z,71.11
2019-05-15T03:36:33.699Z,70.90
2019-05-15T03:37:34.352Z,71.24
2019-05-15T03:38:33.689Z,71.45
2019-05-15T03:39:33.682Z,70.97
2019-05-15T03:40:33.688Z,70.86
2019-05-15T03:41:33.616Z,70.97
2019-05-15T03:42:33.619Z,71.28
2019-05-15T03:43:33.653Z,70.86
2019-05-15T03:44:33.619Z,72.00
2019-05-15T03:45:33.680Z,66.08
2019-05-15T03:46:33.720Z,65.63
2019-05-15T03:47:33.608Z,65.01
2019-05-15T03:48:33.579Z,64.56
2019-05-15T03:49:33.595Z,62.70
2019-05-15T03:50:33.553Z,61.32
2019-05-15T03:51:33.558Z,60.25
2019-05-15T03:52:33.506Z,60.46
2019-05-15T03:53:33.540Z,59.94
2019-05-15T03:54:33.493Z,60.02
2019-05-15T03:55:33.533Z,59.81
2019-05-15T03:56:33.539Z,59.71
2019-05-15T03:57:33.481Z,58.78
2019-05-15T03:58:33.443Z,58.33
2019-05-15T03:59:33.450Z,57.92
2019-05-15T04:00:33.505Z,58.12
2019-05-15T04:01:38.802Z,57.58
2019-05-15T04:02:34.460Z,56.96
2019-05-15T04:03:33.417Z,56.00
2019-05-15T04:04:33.409Z,55.69
2019-05-15T04:05:33.427Z,55.15
2019-05-15T04:06:33.382Z,55.05
2019-05-15T04:07:33.382Z,55.05
2019-05-15T04:08:33.329Z,54.94
2019-05-15T04:09:33.343Z,55.25
2019-05-15T04:10:33.339Z,55.15
2019-05-15T04:11:33.384Z,55.46
2019-05-15T04:12:33.306Z,55.35
2019-05-15T04:13:33.336Z,55.56
2019-05-15T04:14:33.268Z,55.33
2019-05-15T04:15:33.276Z,55.33
2019-05-15T04:16:33.277Z,55.33
2019-05-15T04:17:33.272Z,55.22
2019-05-15T04:18:33.291Z,55.02
2019-05-15T04:19:33.260Z,54.91
2019-05-15T04:20:33.276Z,55.02
2019-05-15T04:21:33.244Z,54.61
2019-05-15T04:22:33.264Z,54.40
2019-05-15T04:23:33.297Z,54.19
2019-05-15T04:24:33.212Z,54.30
2019-05-15T04:25:33.209Z,54.71
2019-05-15T04:26:33.164Z,55.33
2019-05-15T04:27:33.185Z,54.40
2019-05-15T04:28:33.172Z,54.19
2019-05-15T04:29:33.139Z,54.40
2019-05-15T04:30:33.160Z,54.50
2019-05-15T04:31:50.411Z,54.48
2019-05-15T04:32:34.097Z,54.38
2019-05-15T04:33:33.083Z,54.48
2019-05-15T04:34:33.168Z,54.48
2019-05-15T04:35:33.069Z,54.27
2019-05-15T04:36:33.046Z,53.44
2019-05-15T04:37:33.037Z,53.11
2019-05-15T04:38:33.019Z,52.59
2019-05-15T04:39:33.049Z,52.08
2019-05-15T04:40:32.994Z,52.39
2019-05-15T04:41:32.995Z,52.18
2019-05-15T04:42:32.985Z,52.08
2019-05-15T04:43:41.500Z,51.95
2019-05-15T04:44:35.004Z,52.15
2019-05-15T04:45:35.142Z,50.81
2019-05-15T04:46:32.924Z,50.29
2019-05-15T04:47:32.937Z,51.02
2019-05-15T04:48:32.917Z,50.81
2019-05-15T04:49:32.917Z,50.20
2019-05-15T04:50:32.918Z,49.76
2019-05-15T04:51:32.898Z,50.17
2019-05-15T04:52:32.876Z,50.17
2019-05-15T04:53:33.494Z,50.48
2019-05-15T04:54:32.924Z,49.14
2019-05-15T04:55:32.870Z,51.31
2019-05-15T04:56:32.853Z,52.55
2019-05-15T04:57:34.309Z,50.58
2019-05-15T04:58:32.821Z,49.65
2019-05-15T04:59:32.823Z,48.80
2019-05-15T05:00:32.800Z,48.80
2019-05-15T05:01:32.779Z,50.56
2019-05-15T05:02:32.763Z,53.45
2019-05-15T05:03:34.571Z,50.04
2019-05-15T05:04:32.748Z,48.99
2019-05-15T05:05:32.896Z,47.11
2019-05-15T05:06:32.761Z,45.61
2019-05-15T05:07:32.774Z,44.65
2019-05-15T05:08:32.983Z,44.12
2019-05-15T05:09:32.715Z,42.35
2019-05-15T05:10:32.705Z,41.63
2019-05-15T05:11:32.720Z,40.91
2019-05-15T05:12:32.684Z,41.33
2019-05-15T05:13:32.656Z,40.91
2019-05-15T05:14:32.723Z,41.00
2019-05-15T05:15:32.645Z,40.48
2019-05-15T05:16:32.682Z,39.97
2019-05-15T05:17:32.631Z,40.05
2019-05-15T05:18:32.669Z,39.62
2019-05-15T05:19:32.585Z,39.09
2019-05-15T05:20:32.674Z,38.37
2019-05-15T05:21:32.614Z,37.68
2019-05-15T05:22:32.613Z,38.28
2019-05-15T05:23:32.569Z,37.84
2019-05-15T05:24:32.589Z,37.84
2019-05-15T05:25:32.545Z,38.05
2019-05-15T05:26:32.556Z,37.71
2019-05-15T05:27:32.529Z,37.09
2019-05-15T05:28:32.512Z,36.98
2019-05-15T05:29:32.501Z,36.98
2019-05-15T05:30:32.570Z,35.46
2019-05-15T05:31:32.535Z,36.39
2019-05-15T05:32:35.226Z,36.68
2019-05-15T05:33:32.439Z,36.63
2019-05-15T05:34:32.430Z,35.72
2019-05-15T05:35:32.521Z,35.81
2019-05-15T05:36:32.496Z,35.18
2019-05-15T05:37:32.461Z,35.50
2019-05-15T05:38:32.410Z,35.30
2019-05-15T05:39:32.399Z,35.28
2019-05-15T05:40:32.401Z,34.12
2019-05-15T05:41:32.479Z,33.40
2019-05-15T05:42:32.521Z,33.41
2019-05-15T05:43:32.347Z,33.53
2019-05-15T05:44:32.645Z,33.33
2019-05-15T05:45:32.322Z,33.92
2019-05-15T05:46:32.321Z,33.41
2019-05-15T05:47:32.639Z,33.18
2019-05-15T05:48:32.275Z,32.55
2019-05-15T05:49:32.289Z,32.18
2019-05-15T05:50:32.306Z,32.37
2019-05-15T05:51:32.262Z,32.15
2019-05-15T05:52:32.225Z,32.55
2019-05-15T05:53:32.395Z,31.21
2019-05-15T05:54:32.255Z,31.03
2019-05-15T05:55:32.235Z,31.44
2019-05-15T05:56:32.303Z,31.32
2019-05-15T05:57:32.255Z,30.89
2019-05-15T05:58:32.223Z,30.46
2019-05-15T05:59:32.205Z,30.04
2019-05-15T06:00:32.152Z,29.84
2019-05-15T06:01:35.877Z,29.66
2019-05-15T06:02:43.770Z,29.43
2019-05-15T06:03:33.144Z,29.29
2019-05-15T06:04:32.161Z,29.07
2019-05-15T06:05:32.181Z,28.42
2019-05-15T06:06:32.091Z,26.81
2019-05-15T06:07:32.101Z,27.10
2019-05-15T06:08:32.177Z,27.01
2019-05-15T06:09:32.039Z,27.10
2019-05-15T06:10:32.108Z,26.07
2019-05-15T06:11:32.069Z,26.28
2019-05-15T06:12:32.056Z,25.66
2019-05-15T06:13:32.003Z,26.19
2019-05-15T06:14:32.049Z,26.28
2019-05-15T06:15:31.968Z,25.67
2019-05-15T06:16:31.998Z,26.62
2019-05-15T06:17:32.015Z,26.43
2019-05-15T06:18:32.026Z,26.42
2019-05-15T06:19:31.986Z,26.59
2019-05-15T06:20:32.039Z,25.57
2019-05-15T06:21:31.951Z,25.66
2019-05-15T06:22:31.939Z,25.99
2019-05-15T06:23:35.570Z,26.28
2019-05-15T06:24:31.963Z,25.57
2019-05-15T06:25:31.894Z,25.15
2019-05-15T06:26:32.099Z,26.29
2019-05-15T06:27:31.908Z,25.99
2019-05-15T06:28:31.998Z,25.44
2019-05-15T06:29:31.906Z,25.72
2019-05-15T06:30:31.846Z,24.60
2019-05-15T06:31:31.962Z,24.21
2019-05-15T06:32:31.868Z,25.15
2019-05-15T06:33:32.024Z,25.02
2019-05-15T06:34:31.943Z,24.40
2019-05-15T06:35:31.839Z,24.27
2019-05-15T06:36:31.832Z,23.44
2019-05-15T06:37:31.823Z,22.33
2019-05-15T06:38:31.834Z,22.98
2019-05-15T06:39:31.844Z,23.37
2019-05-15T06:40:31.737Z,23.28
2019-05-15T06:41:33.889Z,23.91
2019-05-15T06:42:31.805Z,24.74
2019-05-15T06:43:31.824Z,24.84
2019-05-15T06:44:31.685Z,24.61
2019-05-15T06:45:31.681Z,23.89
2019-05-15T06:46:31.694Z,24.00
2019-05-15T06:47:32.552Z,24.52
2019-05-15T06:48:31.892Z,25.65
2019-05-15T06:50:41.513Z,29.66
2019-05-15T06:52:51.755Z,24.38
2019-05-15T06:53:51.758Z,23.66
2019-05-15T06:54:59.703Z,23.34
2019-05-15T06:55:51.902Z,22.60
2019-05-15T06:56:59.741Z,21.67
2019-05-15T06:57:51.726Z,20.95
2019-05-15T06:58:52.489Z,21.15
2019-05-15T06:59:51.666Z,21.75
2019-05-15T07:00:51.673Z,21.45
2019-05-15T07:01:51.743Z,21.25
2019-05-15T07:02:51.640Z,21.25
2019-05-15T07:03:51.658Z,21.56
2019-05-15T07:04:51.681Z,22.28
2019-05-15T07:06:00.446Z,22.38
2019-05-15T07:07:01.346Z,22.36
2019-05-15T07:08:01.420Z,22.07
2019-05-15T07:10:03.687Z,22.39
2019-05-15T07:11:03.101Z,22.92
2019-05-15T07:12:12.584Z,23.42
2019-05-15T07:13:03.114Z,22.69
2019-05-15T07:14:11.844Z,22.36
2019-05-15T07:15:12.561Z,22.38
2019-05-15T07:17:13.738Z,23.44
2019-05-15T07:18:13.301Z,23.90
2019-05-15T07:19:13.328Z,22.68
2019-05-15T07:20:13.332Z,23.38
2019-05-15T07:21:13.287Z,23.45
2019-05-15T07:22:13.242Z,22.53
2019-05-15T07:23:13.236Z,20.90
2019-05-15T07:24:13.310Z,20.38
2019-05-15T07:25:13.210Z,20.47
2019-05-15T07:26:21.084Z,19.95
2019-05-15T07:27:13.140Z,19.25
2019-05-15T07:28:13.126Z,20.26
2019-05-15T07:29:13.126Z,19.28
2019-05-15T07:30:13.101Z,19.79
2019-05-15T07:31:13.098Z,20.29
2019-05-15T07:32:13.074Z,20.52
2019-05-15T07:33:13.069Z,20.83
2019-05-15T07:34:13.088Z,21.36
2019-05-15T07:35:13.049Z,21.25
2019-05-15T07:36:13.046Z,20.92
2019-05-15T07:37:13.035Z,21.32
2019-05-15T07:38:13.026Z,20.51
2019-05-15T07:39:13.038Z,21.42
2019-05-15T07:40:13.000Z,21.23
2019-05-15T07:41:12.990Z,20.83
2019-05-15T07:42:12.990Z,21.20
2019-05-15T07:43:12.984Z,20.89
2019-05-15T07:44:12.959Z,20.07
2019-05-15T07:45:12.964Z,20.78
2019-05-15T07:46:12.927Z,20.57
2019-05-15T07:47:12.939Z,20.16
2019-05-15T07:48:12.916Z,19.25
2019-05-15T07:49:12.914Z,20.47
2019-05-15T07:50:12.930Z,20.48
2019-05-15T07:51:12.876Z,19.55
2019-05-15T07:52:12.878Z,20.29
2019-05-15T07:53:12.873Z,21.00
2019-05-15T07:54:12.854Z,20.28
2019-05-15T07:55:12.857Z,20.06
2019-05-15T07:56:12.838Z,20.87
2019-05-15T07:57:12.815Z,20.87
2019-05-15T07:58:12.802Z,20.90
2019-05-15T07:59:12.804Z,20.89
2019-05-15T08:00:12.804Z,20.87
2019-05-15T08:01:12.774Z,20.58
2019-05-15T08:02:12.765Z,20.36
2019-05-15T08:03:12.750Z,20.47
2019-05-15T08:04:24.796Z,20.26
2019-05-15T08:05:13.778Z,21.04
2019-05-15T08:06:12.732Z,20.54
2019-05-15T08:07:12.708Z,19.93
2019-05-15T08:08:12.714Z,20.04
2019-05-15T08:09:12.687Z,20.34
2019-05-15T08:10:12.667Z,20.98
2019-05-15T08:11:20.145Z,22.55
2019-05-15T08:12:13.668Z,23.77
2019-05-15T08:13:12.645Z,24.18
2019-05-15T08:14:12.640Z,23.96
2019-05-15T08:15:12.630Z,24.24
2019-05-15T08:16:12.635Z,23.62
2019-05-15T08:17:12.606Z,23.24
2019-05-15T08:18:13.105Z,24.26
2019-05-15T08:19:12.587Z,24.38
2019-05-15T08:20:12.588Z,25.82
2019-05-15T08:21:12.584Z,26.21
2019-05-15T08:22:15.113Z,26.02
2019-05-15T08:23:12.539Z,26.53
2019-05-15T08:24:12.517Z,26.31
2019-05-15T08:25:26.592Z,26.23
2019-05-15T08:26:13.507Z,26.72
2019-05-15T08:27:12.493Z,26.07
2019-05-15T08:28:12.496Z,24.74
2019-05-15T08:29:12.468Z,24.43
2019-05-15T08:30:12.448Z,25.14
2019-05-15T08:31:12.537Z,24.02
2019-05-15T08:32:12.445Z,23.69
2019-05-15T08:33:12.458Z,23.26
2019-05-15T08:34:16.132Z,22.88
2019-05-15T08:35:12.808Z,24.12
2019-05-15T08:36:12.397Z,24.41
2019-05-15T08:37:12.395Z,23.52
2019-05-15T08:38:14.275Z,23.21
2019-05-15T08:39:12.365Z,23.91
2019-05-15T08:40:12.347Z,23.50
2019-05-15T08:41:15.455Z,23.00
2019-05-15T08:42:12.337Z,24.67
2019-05-15T08:43:12.317Z,24.87
2019-05-15T08:44:12.307Z,25.78
2019-05-15T08:45:12.292Z,24.96
2019-05-15T08:46:12.299Z,25.57
2019-05-15T08:47:12.340Z,24.98
2019-05-15T08:48:12.280Z,25.18
2019-05-15T08:49:12.263Z,25.68
2019-05-15T08:50:12.252Z,25.04
2019-05-15T08:51:12.225Z,24.39
2019-05-15T08:52:12.217Z,24.52
2019-05-15T08:53:12.234Z,25.29
2019-05-15T08:54:12.207Z,24.08
2019-05-15T08:55:12.201Z,23.27
2019-05-15T08:56:14.746Z,23.28
2019-05-15T08:57:12.190Z,23.58
2019-05-15T08:58:14.057Z,23.99
2019-05-15T08:59:12.149Z,24.42
2019-05-15T09:00:12.142Z,24.62
2019-05-15T09:01:12.133Z,24.13
2019-05-15T09:02:12.107Z,24.41
2019-05-15T09:03:12.137Z,24.01
2019-05-15T09:04:26.730Z,24.21
2019-05-15T09:05:13.084Z,23.80
2019-05-15T09:06:12.071Z,23.18
2019-05-15T09:07:12.079Z,24.43
2019-05-15T09:08:12.095Z,25.14
2019-05-15T09:09:12.042Z,24.94
2019-05-15T09:10:12.028Z,25.09
2019-05-15T09:11:12.019Z,25.16
2019-05-15T09:12:12.014Z,24.95
2019-05-15T09:13:12.040Z,25.35
2019-05-15T09:14:11.981Z,25.14
2019-05-15T09:15:11.978Z,25.57
2019-05-15T09:16:11.970Z,26.08
2019-05-15T09:17:11.950Z,25.90
2019-05-15T09:18:15.928Z,26.41
2019-05-15T09:19:11.998Z,25.82
2019-05-15T09:20:11.923Z,26.50
2019-05-15T09:21:11.924Z,25.77
2019-05-15T09:22:11.907Z,25.76
2019-05-15T09:23:11.909Z,25.53
2019-05-15T09:24:11.895Z,24.52
2019-05-15T09:25:11.881Z,24.51
2019-05-15T09:26:11.859Z,25.35
2019-05-15T09:27:11.870Z,25.89
2019-05-15T09:28:11.846Z,25.78
2019-05-15T09:29:11.857Z,25.38
2019-05-15T09:30:11.828Z,26.21
2019-05-15T09:31:11.800Z,26.60
2019-05-15T09:32:12.585Z,26.60
2019-05-15T09:33:11.791Z,26.68
2019-05-15T09:34:11.791Z,25.96
2019-05-15T09:35:11.761Z,26.04
2019-05-15T09:36:11.750Z,25.73
2019-05-15T09:37:11.783Z,24.71
2019-05-15T09:38:11.742Z,24.30
2019-05-15T09:39:13.492Z,24.31
2019-05-15T09:40:11.732Z,25.98
2019-05-15T09:41:11.700Z,26.14
2019-05-15T09:42:11.711Z,26.46
2019-05-15T09:43:11.710Z,26.07
2019-05-15T09:44:11.686Z,26.18
2019-05-15T09:45:11.681Z,26.18
2019-05-15T09:46:11.649Z,25.88
2019-05-15T09:47:11.641Z,26.91
2019-05-15T09:48:14.666Z,26.59
2019-05-15T09:49:11.693Z,26.70
2019-05-15T09:50:11.649Z,26.29
2019-05-15T09:51:11.583Z,27.50
2019-05-15T09:52:11.610Z,27.22
2019-05-15T09:53:11.573Z,28.35
2019-05-15T09:54:11.562Z,28.22
2019-05-15T09:55:11.601Z,27.59
2019-05-15T09:56:11.558Z,26.27
2019-05-15T09:57:11.566Z,26.54
2019-05-15T09:58:11.527Z,25.51
2019-05-15T09:59:11.524Z,24.98
2019-05-15T10:00:11.505Z,24.77
2019-05-15T10:01:11.512Z,24.37
2019-05-15T10:02:11.502Z,22.97
2019-05-15T10:03:11.463Z,23.79
2019-05-15T10:04:11.463Z,23.49
2019-05-15T10:05:11.666Z,23.68
2019-05-15T10:06:20.992Z,24.18
2019-05-15T10:07:11.434Z,24.35
2019-05-15T10:08:11.437Z,24.84
2019-05-15T10:09:11.426Z,23.55
2019-05-15T10:10:11.404Z,23.23
2019-05-15T10:11:11.456Z,23.64
2019-05-15T10:12:11.398Z,23.53
2019-05-15T10:13:11.400Z,23.42
2019-05-15T10:14:11.459Z,21.78
2019-05-15T10:15:11.811Z,22.55
2019-05-15T10:16:11.396Z,24.79
2019-05-15T10:17:11.371Z,26.47
2019-05-15T10:18:11.354Z,26.06
2019-05-15T10:19:11.349Z,26.68
2019-05-15T10:20:11.338Z,26.90
2019-05-15T10:21:11.354Z,26.76
2019-05-15T10:22:11.359Z,25.93
2019-05-15T10:23:11.289Z,24.69
2019-05-15T10:24:11.378Z,25.10
2019-05-15T10:25:11.289Z,24.49
2019-05-15T10:26:13.929Z,24.18
2019-05-15T10:27:11.276Z,24.55
2019-05-15T10:28:11.227Z,24.54
2019-05-15T10:29:11.228Z,23.23
2019-05-15T10:30:11.214Z,24.51
2019-05-15T10:31:11.284Z,26.99
2019-05-15T10:32:11.246Z,26.72
2019-05-15T10:33:11.235Z,24.91
2019-05-15T10:34:11.174Z,24.96
2019-05-15T10:35:24.567Z,25.40
2019-05-15T10:36:12.247Z,26.52
2019-05-15T10:37:11.123Z,26.72
2019-05-15T10:38:11.201Z,24.38
2019-05-15T10:39:11.163Z,24.58
2019-05-15T10:40:11.108Z,24.37
2019-05-15T10:41:15.036Z,23.93
2019-05-15T10:42:11.072Z,23.62
2019-05-15T10:43:11.056Z,23.92
2019-05-15T10:44:11.106Z,24.52
2019-05-15T10:45:11.035Z,24.21
2019-05-15T10:46:13.355Z,23.30
2019-05-15T10:47:11.031Z,22.50
2019-05-15T10:48:11.097Z,23.32
2019-05-15T10:49:11.006Z,23.94
2019-05-15T10:50:11.025Z,24.03
2019-05-15T10:51:10.967Z,23.43
2019-05-15T10:52:11.348Z,22.84
2019-05-15T10:53:11.382Z,22.75
2019-05-15T10:54:10.977Z,23.97
2019-05-15T10:55:10.960Z,24.29
2019-05-15T10:56:10.976Z,24.08
2019-05-15T10:57:10.916Z,23.74
2019-05-15T10:58:16.694Z,24.34
2019-05-15T10:59:11.946Z,23.52
2019-05-15T11:00:10.935Z,23.32
2019-05-15T11:01:11.468Z,22.78
2019-05-15T11:02:10.899Z,22.66
2019-05-15T11:03:11.043Z,21.88
2019-05-15T11:04:10.857Z,21.56
2019-05-15T11:05:10.878Z,21.55
2019-05-15T11:06:10.841Z,21.56
2019-05-15T11:07:10.826Z,22.47
2019-05-15T11:08:10.789Z,22.16
2019-05-15T11:09:10.786Z,20.32
2019-05-15T11:10:10.807Z,20.40
2019-05-15T11:11:10.827Z,19.90
2019-05-15T11:12:10.766Z,20.62
2019-05-15T11:13:10.757Z,23.22
2019-05-15T11:14:10.738Z,24.35
2019-05-15T11:15:11.423Z,24.16
2019-05-15T11:16:10.728Z,25.59
2019-05-15T11:17:10.743Z,26.01
2019-05-15T11:18:10.739Z,25.18
2019-05-15T11:19:10.680Z,25.60
2019-05-15T11:20:10.717Z,24.65
2019-05-15T11:21:10.694Z,23.84
2019-05-15T11:22:10.650Z,25.05
2019-05-15T11:23:10.660Z,26.58
2019-05-15T11:24:10.673Z,26.39
2019-05-15T11:25:10.685Z,26.43
2019-05-15T11:26:10.653Z,26.76
2019-05-15T11:27:10.602Z,26.89
2019-05-15T11:28:10.597Z,27.42
2019-05-15T11:29:10.647Z,28.42
2019-05-15T11:30:10.615Z,28.84
2019-05-15T11:31:10.679Z,28.05
2019-05-15T11:32:10.556Z,27.97
2019-05-15T11:33:10.548Z,28.49
2019-05-15T11:34:10.549Z,28.09
2019-05-15T11:35:11.535Z,28.30
2019-05-15T11:36:10.560Z,28.82
2019-05-15T11:37:10.513Z,28.43
2019-05-15T11:38:10.510Z,29.35
2019-05-15T11:39:10.503Z,29.34
2019-05-15T11:40:11.086Z,29.44
2019-05-15T11:41:10.551Z,28.63
2019-05-15T11:42:10.447Z,28.74
2019-05-15T11:43:10.456Z,28.30
2019-05-15T11:44:10.478Z,27.06
2019-05-15T11:45:10.447Z,26.61
2019-05-15T11:46:10.414Z,25.67
2019-05-15T11:47:10.434Z,24.35
2019-05-15T11:48:10.414Z,23.69
2019-05-15T11:49:10.396Z,22.25
2019-05-15T11:50:10.364Z,23.47
2019-05-15T11:51:10.347Z,23.92
2019-05-15T11:52:10.365Z,23.75
2019-05-15T11:53:10.317Z,24.98
2019-05-15T11:54:10.348Z,25.51
2019-05-15T11:55:10.361Z,25.01
2019-05-15T11:56:10.326Z,25.61
2019-05-15T11:57:10.350Z,25.27
2019-05-15T11:58:10.304Z,23.45
2019-05-15T11:59:10.277Z,24.08
2019-05-15T12:00:17.197Z,24.18
2019-05-15T12:01:11.251Z,24.49
2019-05-15T12:02:10.258Z,24.79
2019-05-15T12:03:10.220Z,24.49
2019-05-15T12:04:10.208Z,24.59
2019-05-15T12:05:10.238Z,24.60
2019-05-15T12:06:18.460Z,25.30
2019-05-15T12:07:11.175Z,24.99
2019-05-15T12:08:12.555Z,25.01
2019-05-15T12:09:10.244Z,25.41
2019-05-15T12:10:10.898Z,25.84
2019-05-15T12:11:26.765Z,26.75
2019-05-15T12:12:11.225Z,27.36
2019-05-15T12:13:10.188Z,28.28
2019-05-15T12:14:10.117Z,28.17
2019-05-15T12:15:10.087Z,28.28
2019-05-15T12:16:10.128Z,28.49
2019-05-15T12:17:15.042Z,28.72
2019-05-15T12:18:11.117Z,28.52
2019-05-15T12:19:16.632Z,28.31
2019-05-15T12:20:11.143Z,28.31
2019-05-15T12:21:10.039Z,27.44
2019-05-15T12:22:10.017Z,25.57
2019-05-15T12:23:10.006Z,24.62
2019-05-15T12:24:10.002Z,23.88
2019-05-15T12:25:10.495Z,22.95
2019-05-15T12:26:10.000Z,22.63
2019-05-15T12:27:15.299Z,21.83
2019-05-15T12:28:10.959Z,22.02
2019-05-15T12:29:10.264Z,21.89
2019-05-15T12:30:10.267Z,22.25
2019-05-15T12:31:09.942Z,22.34
2019-05-15T12:32:23.572Z,22.68
2019-05-15T12:33:10.885Z,23.32
2019-05-15T12:34:09.953Z,24.76
2019-05-15T12:35:09.928Z,25.18
2019-05-15T12:36:10.921Z,26.09
2019-05-15T12:37:10.137Z,26.29
2019-05-15T12:38:10.437Z,25.82
2019-05-15T12:39:13.556Z,25.73
2019-05-15T13:00:10.779Z,27.09
2019-05-15T13:01:16.851Z,26.28
2019-05-15T13:02:10.687Z,26.61
2019-05-15T13:03:09.564Z,27.33
2019-05-15T13:04:09.592Z,27.75
2019-05-15T13:05:09.546Z,27.63
2019-05-15T13:06:09.592Z,28.23
2019-05-15T13:07:15.811Z,28.34
2019-05-15T13:08:10.564Z,27.73
2019-05-15T13:09:09.519Z,27.34
2019-05-15T13:10:09.526Z,28.54
2019-05-15T13:11:14.768Z,27.36
2019-05-15T13:12:10.521Z,26.57
2019-05-15T13:13:10.060Z,27.78
2019-05-15T13:14:09.573Z,26.99
2019-05-15T13:15:09.499Z,27.49
2019-05-15T13:16:09.466Z,27.69
2019-05-15T13:17:09.530Z,26.45